createdAt,value
2019-03-24T00:02:25.577Z,91.93
2019-03-24T00:04:53.405Z,92.03
2019-03-24T00:07:21.164Z,97.30
2019-03-24T00:09:48.836Z,100.43
2019-03-24T00:12:16.596Z,94.23
2019-03-24T00:14:44.466Z,105.03
2019-03-24T00:17:12.234Z,83.07
2019-03-24T00:19:39.928Z,69.87
2019-03-24T00:22:07.611Z,51.10
2019-03-24T00:24:35.731Z,48.30
2019-03-24T00:27:03.603Z,44.47
2019-03-24T00:29:31.373Z,46.90
2019-03-24T00:31:59.136Z,45.97
2019-03-24T00:34:26.899Z,54.00
2019-03-24T00:36:54.661Z,76.17
2019-03-24T00:39:22.638Z,74.17
2019-03-24T00:41:50.707Z,61.83
2019-03-24T00:44:18.640Z,62.30
2019-03-24T00:46:46.570Z,55.67
2019-03-24T00:49:14.296Z,50.70
2019-03-24T00:51:42.087Z,56.03
2019-03-24T00:54:09.849Z,44.43
2019-03-24T00:56:37.490Z,45.80
2019-03-24T00:59:05.159Z,47.30
2019-03-24T01:01:32.843Z,42.23
2019-03-24T01:04:00.707Z,35.13
2019-03-24T01:06:28.352Z,38.90
2019-03-24T01:08:56.136Z,36.13
2019-03-24T01:11:23.799Z,32.63
2019-03-24T01:13:51.479Z,36.40
2019-03-24T01:16:19.548Z,38.67
2019-03-24T01:18:47.400Z,36.00
2019-03-24T01:21:15.164Z,38.77
2019-03-24T01:23:42.932Z,41.97
2019-03-24T01:26:10.697Z,36.93
2019-03-24T01:28:38.470Z,41.67
2019-03-24T01:31:06.152Z,41.17
2019-03-24T01:33:33.909Z,43.27
2019-03-24T01:36:01.652Z,42.50
2019-03-24T01:38:29.424Z,39.77
2019-03-24T01:40:57.192Z,39.70
2019-03-24T01:43:25.063Z,45.67
2019-03-24T01:45:58.496Z,37.10
2019-03-24T01:48:22.129Z,40.80
2019-03-24T01:50:49.897Z,44.43
2019-03-24T01:53:17.766Z,43.13
2019-03-24T01:55:45.535Z,39.43
2019-03-24T01:58:13.397Z,39.93
2019-03-24T02:00:41.033Z,41.03
2019-03-24T02:03:08.827Z,38.33
2019-03-24T02:05:36.463Z,39.43
2019-03-24T02:08:05.292Z,35.52
2019-03-24T02:10:33.061Z,35.47
2019-03-24T02:13:00.915Z,32.07
2019-03-24T02:15:28.664Z,33.30
2019-03-24T02:17:56.340Z,32.77
2019-03-24T02:20:24.214Z,32.83
2019-03-24T02:22:52.081Z,33.50
2019-03-24T02:25:19.849Z,31.70
2019-03-24T02:27:47.515Z,31.97
2019-03-24T02:30:15.625Z,37.03
2019-03-24T02:32:43.352Z,38.00
2019-03-24T02:35:11.016Z,31.37
2019-03-24T02:37:38.775Z,35.43
2019-03-24T02:40:09.609Z,37.00
2019-03-24T02:42:37.490Z,39.00
2019-03-24T02:45:08.321Z,37.57
2019-03-24T02:47:36.091Z,36.23
2019-03-24T02:50:04.555Z,39.70
2019-03-24T02:52:32.336Z,41.63
2019-03-24T02:55:00.509Z,34.70
2019-03-24T02:57:28.584Z,36.90
2019-03-24T02:59:56.339Z,35.90
2019-03-24T03:02:24.100Z,36.03
2019-03-24T03:04:51.990Z,37.47
2019-03-24T03:07:19.866Z,34.33
2019-03-24T03:09:47.510Z,34.20
2019-03-24T03:12:15.394Z,42.60
2019-03-24T03:14:43.160Z,34.87
2019-03-24T03:17:11.018Z,39.37
2019-03-24T03:19:38.668Z,34.90
2019-03-24T03:22:06.554Z,33.87
2019-03-24T03:24:34.417Z,30.67
2019-03-24T03:27:02.085Z,38.67
2019-03-24T03:29:29.852Z,35.70
2019-03-24T03:31:57.622Z,33.23
2019-03-24T03:34:25.396Z,29.97
2019-03-24T03:36:53.133Z,28.37
2019-03-24T03:39:20.922Z,32.83
2019-03-24T03:41:48.733Z,33.00
2019-03-24T03:44:16.510Z,30.90
2019-03-24T03:46:52.312Z,33.20
2019-03-24T03:49:13.723Z,33.80
2019-03-24T03:51:41.585Z,32.10
2019-03-24T03:54:09.333Z,31.13
2019-03-24T03:56:37.128Z,34.37
2019-03-24T03:59:05.035Z,29.60
2019-03-24T04:01:32.940Z,33.13
2019-03-24T04:04:00.605Z,33.07
2019-03-24T04:06:28.588Z,31.30
2019-03-24T04:08:56.460Z,28.13
2019-03-24T04:11:24.433Z,34.43
2019-03-24T04:13:52.205Z,31.83
2019-03-24T04:16:19.968Z,28.33
2019-03-24T04:18:47.739Z,33.17
2019-03-24T04:21:15.601Z,30.87
2019-03-24T04:23:43.572Z,32.43
2019-03-24T04:26:11.421Z,30.30
2019-03-24T04:28:39.204Z,37.20
2019-03-24T04:31:06.956Z,27.90
2019-03-24T04:33:34.833Z,30.50
2019-03-24T04:36:02.703Z,31.20
2019-03-24T04:38:30.352Z,30.27
2019-03-24T04:40:58.140Z,30.97
2019-03-24T04:43:25.853Z,35.40
2019-03-24T04:45:53.564Z,33.03
2019-03-24T04:48:21.333Z,38.83
2019-03-24T04:50:49.044Z,32.37
2019-03-24T04:53:16.769Z,33.40
2019-03-24T04:55:44.525Z,32.37
2019-03-24T04:58:12.212Z,33.80
2019-03-24T05:00:40.092Z,32.70
2019-03-24T05:03:10.487Z,29.73
2019-03-24T05:05:39.170Z,35.87
2019-03-24T05:08:06.945Z,32.17
2019-03-24T05:10:35.218Z,29.20
2019-03-24T05:13:02.968Z,32.70
2019-03-24T05:15:30.743Z,32.43
2019-03-24T05:17:58.416Z,29.67
2019-03-24T05:20:26.052Z,33.90
2019-03-24T05:22:53.840Z,29.33
2019-03-24T05:25:22.903Z,30.83
2019-03-24T05:27:51.013Z,31.83
2019-03-24T05:30:18.701Z,29.47
2019-03-24T05:32:46.547Z,33.37
2019-03-24T05:35:14.301Z,35.40
2019-03-24T05:37:42.069Z,52.53
2019-03-24T05:40:09.708Z,36.57
2019-03-24T05:42:37.517Z,38.47
2019-03-24T05:45:06.673Z,37.90
2019-03-24T05:47:37.416Z,36.83
2019-03-24T05:50:05.391Z,34.57
2019-03-24T05:52:33.055Z,33.33
2019-03-24T05:55:00.954Z,34.83
2019-03-24T05:57:29.824Z,43.97
2019-03-24T05:59:57.802Z,45.00
2019-03-24T06:02:25.443Z,40.93
2019-03-24T06:04:53.232Z,56.90
2019-03-24T06:07:21.100Z,45.30
2019-03-24T06:09:48.812Z,46.80
2019-03-24T06:12:16.631Z,43.13
2019-03-24T06:14:44.403Z,42.37
2019-03-24T06:17:12.148Z,45.00
2019-03-24T06:19:39.844Z,39.27
2019-03-24T06:22:07.694Z,42.70
2019-03-24T06:24:35.484Z,44.77
2019-03-24T06:27:03.321Z,35.23
2019-03-24T06:29:31.099Z,40.63
2019-03-24T06:31:58.866Z,49.33
2019-03-24T06:34:26.728Z,42.67
2019-03-24T06:36:54.500Z,41.33
2019-03-24T06:39:22.247Z,39.47
2019-03-24T06:41:50.032Z,37.27
2019-03-24T06:44:17.900Z,34.47
2019-03-24T06:46:45.580Z,33.00
2019-03-24T06:49:13.436Z,33.07
2019-03-24T06:51:41.300Z,38.83
2019-03-24T06:54:09.163Z,35.97
2019-03-24T06:56:37.032Z,41.00
2019-03-24T06:59:04.803Z,33.70
2019-03-24T07:01:32.548Z,37.53
2019-03-24T07:04:00.437Z,33.83
2019-03-24T07:06:28.184Z,31.87
2019-03-24T07:08:56.071Z,40.30
2019-03-24T07:11:23.839Z,37.33
2019-03-24T07:13:51.609Z,34.03
2019-03-24T07:16:19.474Z,38.53
2019-03-24T07:18:47.237Z,38.57
2019-03-24T07:21:15.101Z,31.07
2019-03-24T07:23:42.769Z,33.30
2019-03-24T07:26:10.530Z,37.20
2019-03-24T07:28:38.505Z,33.80
2019-03-24T07:31:06.255Z,40.63
2019-03-24T07:33:34.135Z,26.37
2019-03-24T07:36:01.785Z,27.70
2019-03-24T07:38:29.491Z,28.07
2019-03-24T07:40:57.330Z,25.67
2019-03-24T07:43:25.199Z,26.73
2019-03-24T07:45:52.952Z,33.40
2019-03-24T07:48:20.866Z,27.13
2019-03-24T07:50:48.701Z,27.13
2019-03-24T07:53:16.387Z,23.30
2019-03-24T07:55:44.233Z,17.73
2019-03-24T07:58:11.881Z,18.70
2019-03-24T08:00:39.765Z,19.43
2019-03-24T08:03:07.539Z,22.43
2019-03-24T08:05:35.291Z,19.63
2019-03-24T08:08:03.680Z,22.57
2019-03-24T08:10:33.393Z,25.53
2019-03-24T08:13:01.263Z,26.80
2019-03-24T08:15:29.129Z,15.50
2019-03-24T08:17:57.401Z,15.07
2019-03-24T08:20:25.187Z,23.67
2019-03-24T08:22:52.949Z,17.90
2019-03-24T08:25:20.705Z,19.83
2019-03-24T08:27:48.673Z,19.67
2019-03-24T08:30:17.989Z,21.57
2019-03-24T08:32:45.950Z,30.23
2019-03-24T08:35:13.711Z,27.50
2019-03-24T08:37:41.512Z,21.80
2019-03-24T08:40:09.451Z,26.03
2019-03-24T08:42:37.145Z,23.63
2019-03-24T08:45:05.487Z,20.53
2019-03-24T08:47:33.359Z,16.10
2019-03-24T08:50:01.029Z,21.47
2019-03-24T08:52:29.080Z,19.23
2019-03-24T08:54:56.860Z,20.07
2019-03-24T08:57:24.545Z,22.57
2019-03-24T08:59:52.502Z,22.70
2019-03-24T09:02:20.566Z,23.63
2019-03-24T09:04:48.340Z,20.50
2019-03-24T09:07:16.092Z,23.67
2019-03-24T09:09:43.975Z,25.37
2019-03-24T09:12:11.607Z,16.13
2019-03-24T09:14:39.288Z,24.63
2019-03-24T09:17:07.023Z,22.63
2019-03-24T09:19:34.697Z,19.13
2019-03-24T09:22:02.565Z,23.63
2019-03-24T09:24:30.278Z,17.27
2019-03-24T09:26:57.905Z,21.50
2019-03-24T09:29:25.633Z,17.20
2019-03-24T09:31:53.401Z,20.33
2019-03-24T09:34:21.111Z,15.43
2019-03-24T09:36:48.764Z,16.20
2019-03-24T09:39:16.494Z,20.07
2019-03-24T09:41:44.296Z,20.17
2019-03-24T09:44:11.965Z,14.00
2019-03-24T09:46:39.685Z,20.57
2019-03-24T09:49:07.392Z,18.87
2019-03-24T09:51:35.275Z,20.77
2019-03-24T09:54:02.913Z,17.50
2019-03-24T09:56:30.584Z,13.10
2019-03-24T09:58:58.334Z,12.60
2019-03-24T10:01:25.992Z,16.23
2019-03-24T10:03:53.627Z,12.03
2019-03-24T10:06:21.372Z,12.77
2019-03-24T10:08:49.118Z,14.50
2019-03-24T10:11:16.872Z,11.87
2019-03-24T10:13:44.495Z,16.23
2019-03-24T10:16:12.271Z,14.57
2019-03-24T10:18:40.006Z,17.80
2019-03-24T10:21:07.725Z,14.30
2019-03-24T10:23:35.395Z,15.37
2019-03-24T10:26:03.169Z,17.30
2019-03-24T10:28:30.876Z,13.63
2019-03-24T10:30:58.532Z,13.93
2019-03-24T10:33:26.225Z,19.43
2019-03-24T10:35:53.856Z,15.90
2019-03-24T10:38:21.641Z,12.07
2019-03-24T10:40:49.294Z,14.73
2019-03-24T10:43:16.965Z,11.57
2019-03-24T10:45:44.661Z,10.47
2019-03-24T10:48:12.299Z,13.23
2019-03-24T10:50:40.017Z,15.10
2019-03-24T10:53:07.652Z,10.70
2019-03-24T10:55:35.295Z,12.60
2019-03-24T10:58:02.998Z,17.87
2019-03-24T11:00:37.872Z,12.83
2019-03-24T11:03:05.916Z,12.53
2019-03-24T11:05:33.539Z,9.70
2019-03-24T11:08:01.273Z,13.10
2019-03-24T11:10:28.901Z,11.80
2019-03-24T11:12:56.643Z,9.43
2019-03-24T11:15:24.362Z,16.00
2019-03-24T11:17:52.032Z,11.43
2019-03-24T11:20:19.729Z,12.70
2019-03-24T11:22:47.445Z,12.77
2019-03-24T11:25:15.124Z,9.73
2019-03-24T11:27:42.756Z,14.50
2019-03-24T11:30:12.180Z,11.53
2019-03-24T11:32:40.243Z,11.73
2019-03-24T11:35:08.084Z,13.50
2019-03-24T11:37:35.820Z,9.13
2019-03-24T11:40:04.515Z,11.33
2019-03-24T11:42:32.236Z,11.00
2019-03-24T11:44:59.906Z,10.67
2019-03-24T11:47:27.563Z,7.37
2019-03-24T11:49:55.255Z,9.77
2019-03-24T11:52:22.916Z,9.40
2019-03-24T11:54:50.628Z,9.17
2019-03-24T11:57:18.287Z,9.60
2019-03-24T11:59:46.006Z,9.77
2019-03-24T12:02:13.692Z,6.37
2019-03-24T12:04:41.370Z,9.43
2019-03-24T12:07:09.029Z,9.17
2019-03-24T12:09:36.717Z,6.87
2019-03-24T12:12:05.260Z,9.58
2019-03-24T12:14:32.989Z,11.30
2019-03-24T12:17:00.692Z,10.90
2019-03-24T12:19:28.527Z,9.67
2019-03-24T12:21:56.225Z,9.83
2019-03-24T12:24:23.844Z,9.30
2019-03-24T12:26:51.597Z,7.13
2019-03-24T12:29:19.219Z,9.57
2019-03-24T12:31:46.935Z,9.73
2019-03-24T12:34:14.636Z,10.77
2019-03-24T12:36:42.385Z,13.27
2019-03-24T12:39:10.007Z,9.87
2019-03-24T12:41:37.714Z,10.73
2019-03-24T12:44:05.449Z,13.20
2019-03-24T12:46:33.080Z,9.17
2019-03-24T12:49:00.813Z,9.43
2019-03-24T12:51:28.721Z,12.70
2019-03-24T12:53:56.376Z,9.80
2019-03-24T12:56:24.096Z,5.97
2019-03-24T12:58:51.785Z,16.43
2019-03-24T13:01:19.496Z,10.70
2019-03-24T13:03:47.158Z,9.60
2019-03-24T13:06:14.898Z,12.23
2019-03-24T13:08:42.579Z,9.23
2019-03-24T13:11:10.321Z,13.67
2019-03-24T13:13:37.972Z,13.00
2019-03-24T13:16:06.074Z,9.77
2019-03-24T13:18:33.748Z,11.47
2019-03-24T13:21:01.425Z,7.97
2019-03-24T13:23:29.101Z,10.30
2019-03-24T13:25:56.845Z,11.20
2019-03-24T13:28:24.512Z,11.93
2019-03-24T13:30:52.198Z,7.20
2019-03-24T13:33:19.874Z,8.43
2019-03-24T13:35:49.108Z,15.47
2019-03-24T13:38:16.820Z,9.83
2019-03-24T13:40:44.477Z,7.53
2019-03-24T13:43:12.205Z,9.53
2019-03-24T13:45:39.902Z,9.43
2019-03-24T13:48:07.556Z,8.93
2019-03-24T13:50:35.293Z,12.27
2019-03-24T13:53:02.924Z,8.97
2019-03-24T13:55:30.564Z,8.73
2019-03-24T13:57:58.337Z,8.73
2019-03-24T14:00:26.003Z,9.57
2019-03-24T14:02:53.664Z,7.63
2019-03-24T14:05:21.400Z,7.03
2019-03-24T14:07:49.080Z,11.33
2019-03-24T14:10:16.739Z,8.30
2019-03-24T14:12:44.753Z,9.30
2019-03-24T14:15:14.175Z,10.13
2019-03-24T14:17:41.785Z,8.63
2019-03-24T14:20:09.621Z,7.77
2019-03-24T14:22:37.247Z,12.23
2019-03-24T14:25:05.888Z,8.53
2019-03-24T14:27:33.641Z,9.50
2019-03-24T14:30:01.406Z,8.10
2019-03-24T14:32:29.123Z,9.63
2019-03-24T14:34:56.749Z,8.23
2019-03-24T14:37:24.417Z,12.60
2019-03-24T14:39:52.232Z,9.13
2019-03-24T14:42:19.900Z,10.83
2019-03-24T14:44:47.537Z,13.60
2019-03-24T14:47:15.254Z,11.57
2019-03-24T14:49:42.992Z,7.37
2019-03-24T14:52:10.648Z,6.37
2019-03-24T14:54:38.335Z,8.60
2019-03-24T14:57:06.016Z,9.93
2019-03-24T14:59:33.690Z,9.57
2019-03-24T15:02:01.434Z,11.53
2019-03-24T15:04:29.128Z,10.13
2019-03-24T15:06:56.764Z,7.77
2019-03-24T15:09:24.436Z,9.63
2019-03-24T15:11:52.402Z,10.00
2019-03-24T15:14:20.052Z,7.87
2019-03-24T15:16:47.757Z,11.10
2019-03-24T15:19:15.448Z,14.10
2019-03-24T15:21:43.233Z,11.57
2019-03-24T15:24:10.853Z,9.73
2019-03-24T15:26:38.557Z,16.60
2019-03-24T15:29:06.243Z,13.60
2019-03-24T15:31:33.940Z,12.03
2019-03-24T15:34:01.647Z,14.90
2019-03-24T15:36:29.433Z,11.90
2019-03-24T15:38:57.051Z,9.30
2019-03-24T15:41:24.698Z,10.50
2019-03-24T15:43:52.363Z,19.73
2019-03-24T15:46:20.061Z,11.60
2019-03-24T15:48:50.085Z,12.83
2019-03-24T15:51:17.464Z,12.23
2019-03-24T15:53:45.230Z,11.63
2019-03-24T15:56:12.872Z,12.73
2019-03-24T15:58:40.572Z,45.23
2019-03-24T16:01:08.377Z,29.67
2019-03-24T16:03:36.108Z,38.60
2019-03-24T16:06:03.785Z,180.03
2019-03-24T16:08:31.423Z,211.33
2019-03-24T16:10:59.211Z,63.60
2019-03-24T16:13:27.064Z,116.73
2019-03-24T16:15:54.770Z,33.97
2019-03-24T16:20:57.606Z,39.87
2019-03-24T16:23:25.378Z,63.10
2019-03-24T16:25:55.606Z,118.33
2019-03-24T16:28:22.487Z,137.07
2019-03-24T16:30:50.575Z,69.27
2019-03-24T16:33:18.357Z,49.07
2019-03-24T16:35:45.992Z,46.53
2019-03-24T16:38:16.061Z,106.07
2019-03-24T16:40:43.736Z,54.47
2019-03-24T16:43:12.573Z,287.60
2019-03-24T16:45:40.901Z,75.87
2019-03-24T16:48:09.584Z,49.53
2019-03-24T16:50:37.655Z,39.87
2019-03-24T16:53:05.317Z,16.93
2019-03-24T16:55:33.233Z,17.23
2019-03-24T16:58:01.210Z,12.20
2019-03-24T17:00:28.885Z,13.63
2019-03-24T17:02:56.580Z,21.03
2019-03-24T17:05:24.261Z,15.73
2019-03-24T17:07:52.206Z,13.87
2019-03-24T17:10:20.471Z,58.33
2019-03-24T17:12:48.866Z,53.17
2019-03-24T17:15:18.766Z,17.60
2019-03-24T17:17:47.613Z,19.93
2019-03-24T17:20:15.412Z,12.13
2019-03-24T17:22:46.112Z,16.47
2019-03-24T17:25:13.927Z,10.97
2019-03-24T17:27:41.695Z,13.90
2019-03-24T17:30:10.663Z,15.70
2019-03-24T17:32:38.343Z,28.17
2019-03-24T17:35:34.055Z,19.63
2019-03-24T17:37:59.372Z,28.33
2019-03-24T17:40:27.489Z,23.13
2019-03-24T17:42:55.508Z,20.23
2019-03-24T17:45:23.317Z,15.80
2019-03-24T17:47:52.987Z,17.17
2019-03-24T17:50:21.129Z,14.13
2019-03-24T17:52:49.134Z,18.43
2019-03-24T17:55:27.138Z,30.33
2019-03-24T17:57:46.632Z,20.97
2019-03-24T18:00:17.271Z,16.53
2019-03-24T18:02:45.317Z,15.83
2019-03-24T18:05:13.089Z,13.57
2019-03-24T18:07:40.830Z,18.03
2019-03-24T18:10:09.470Z,24.43
2019-03-24T18:12:37.555Z,18.33
2019-03-24T18:15:07.049Z,25.07
2019-03-24T18:17:34.763Z,25.47
2019-03-24T18:20:02.850Z,18.73
2019-03-24T18:22:30.513Z,23.93
2019-03-24T18:24:58.229Z,23.73
2019-03-24T18:27:25.938Z,37.80
2019-03-24T18:29:53.612Z,40.50
2019-03-24T18:32:23.077Z,35.80
2019-03-24T18:34:50.892Z,38.00
2019-03-24T18:37:18.625Z,54.97
2019-03-24T18:39:46.615Z,48.00
2019-03-24T18:42:14.753Z,62.63
2019-03-24T18:44:42.755Z,62.37
2019-03-24T18:47:10.404Z,50.90
2019-03-24T18:49:38.157Z,43.13
2019-03-24T18:52:05.861Z,41.10
2019-03-24T18:54:33.805Z,33.50
2019-03-24T18:57:01.477Z,34.40
2019-03-24T18:59:29.723Z,32.07
2019-03-24T19:01:57.840Z,32.87
2019-03-24T19:04:25.477Z,43.03
2019-03-24T19:06:53.197Z,30.20
2019-03-24T19:09:21.401Z,25.47
2019-03-24T19:11:51.688Z,27.53
2019-03-24T19:14:18.772Z,24.60
2019-03-24T19:16:46.713Z,24.00
2019-03-24T19:19:14.409Z,23.03
2019-03-24T19:21:42.102Z,30.50
2019-03-24T19:24:09.768Z,25.10
2019-03-24T19:26:37.512Z,27.20
2019-03-24T19:29:12.159Z,28.63
2019-03-24T19:31:41.826Z,33.80
2019-03-24T19:34:10.535Z,32.90
2019-03-24T19:36:38.669Z,34.40
2019-03-24T19:39:09.718Z,33.83
2019-03-24T19:41:38.090Z,39.33
2019-03-24T19:44:06.066Z,30.87
2019-03-24T19:46:36.535Z,25.33
2019-03-24T19:49:05.491Z,29.57
2019-03-24T19:51:33.199Z,33.17
2019-03-24T19:54:00.935Z,22.53
2019-03-24T19:56:29.780Z,27.33
2019-03-24T19:58:57.568Z,27.50
2019-03-24T20:01:25.913Z,26.73
2019-03-24T20:03:53.817Z,38.67
2019-03-24T20:06:21.578Z,39.53
2019-03-24T20:08:50.936Z,31.90
2019-03-24T20:11:18.844Z,28.53
2019-03-24T20:13:47.456Z,39.90
2019-03-24T20:16:16.077Z,29.27
2019-03-24T20:18:45.312Z,30.40
2019-03-24T20:21:13.947Z,26.10
2019-03-24T20:23:41.933Z,29.93
2019-03-24T20:26:09.917Z,28.60
2019-03-24T20:28:37.994Z,33.00
2019-03-24T20:31:06.924Z,34.33
2019-03-24T20:33:34.945Z,32.60
2019-03-24T20:36:03.393Z,36.47
2019-03-24T20:38:31.966Z,32.80
2019-03-24T20:40:59.764Z,40.23
2019-03-24T20:43:27.448Z,31.73
2019-03-24T20:45:55.118Z,32.77
2019-03-24T20:48:22.810Z,37.73
2019-03-24T20:50:50.447Z,34.90
2019-03-24T20:53:18.702Z,30.27
2019-03-24T20:55:46.461Z,40.03
2019-03-24T20:58:14.468Z,31.83
2019-03-24T21:00:42.516Z,38.30
2019-03-24T21:03:10.650Z,38.10
2019-03-24T21:05:38.313Z,41.70
2019-03-24T21:08:06.138Z,46.97
2019-03-24T21:10:34.009Z,40.57
2019-03-24T21:13:02.059Z,38.00
2019-03-24T21:15:29.957Z,43.27
2019-03-24T21:17:57.929Z,40.93
2019-03-24T21:20:25.608Z,37.23
2019-03-24T21:22:53.476Z,43.43
2019-03-24T21:25:21.242Z,61.83
2019-03-24T21:27:49.290Z,102.87
2019-03-24T21:30:18.491Z,63.63
2019-03-24T21:32:46.228Z,44.90
2019-03-24T21:35:14.280Z,38.27
2019-03-24T21:37:42.224Z,33.13
2019-03-24T21:40:10.250Z,42.53
2019-03-24T21:42:38.307Z,38.53
2019-03-24T21:45:06.944Z,34.87
2019-03-24T21:47:34.937Z,32.03
2019-03-24T21:50:02.677Z,27.80
2019-03-24T21:52:30.377Z,24.20
2019-03-24T21:54:58.048Z,33.77
2019-03-24T21:57:25.760Z,25.43
2019-03-24T21:59:53.433Z,33.33
2019-03-24T22:02:21.419Z,33.93
2019-03-24T22:04:49.258Z,37.77
2019-03-24T22:07:16.964Z,34.27
2019-03-24T22:09:44.664Z,41.40
2019-03-24T22:12:12.621Z,34.93
2019-03-24T22:14:40.305Z,36.93
2019-03-24T22:17:08.038Z,29.90
2019-03-24T22:19:35.668Z,38.03
2019-03-24T22:22:03.669Z,37.17
2019-03-24T22:24:31.715Z,28.83
2019-03-24T22:26:59.674Z,32.63
2019-03-24T22:29:27.713Z,33.47
2019-03-24T22:31:55.815Z,34.93
2019-03-24T22:34:23.865Z,33.87
2019-03-24T22:36:51.508Z,32.47
2019-03-24T22:39:19.317Z,34.53
2019-03-24T22:41:46.978Z,35.50
2019-03-24T22:44:15.034Z,34.60
2019-03-24T22:46:42.797Z,40.13
2019-03-24T22:49:10.481Z,37.77
2019-03-24T22:51:38.295Z,30.63
2019-03-24T22:54:05.956Z,35.10
2019-03-24T22:56:34.042Z,31.03
2019-03-24T22:59:01.954Z,23.93
2019-03-24T23:01:29.954Z,30.20
2019-03-24T23:03:57.681Z,30.87
2019-03-24T23:06:25.323Z,27.47
2019-03-24T23:08:53.361Z,28.53
2019-03-24T23:11:21.101Z,31.37
2019-03-24T23:13:48.810Z,33.03
2019-03-24T23:16:16.505Z,30.13
2019-03-24T23:18:44.639Z,30.17
2019-03-24T23:21:12.613Z,25.87
2019-03-24T23:23:40.362Z,28.43
2019-03-24T23:26:08.001Z,28.63
2019-03-24T23:28:35.714Z,34.87
2019-03-24T23:31:03.767Z,25.33
2019-03-24T23:33:31.428Z,25.83
2019-03-24T23:35:59.522Z,29.87
2019-03-24T23:38:27.524Z,31.40
2019-03-24T23:40:55.496Z,25.13
2019-03-24T23:43:23.246Z,27.27
2019-03-24T23:45:51.386Z,25.47
2019-03-24T23:48:19.065Z,25.43
2019-03-24T23:50:47.165Z,33.23
2019-03-24T23:53:14.799Z,33.23
2019-03-24T23:55:42.474Z,32.83
2019-03-24T23:58:10.650Z,36.17
